createdAt,value
2023-02-11T00:00:20.629Z,30.83
2023-02-11T00:02:48.082Z,36.55
2023-02-11T00:05:15.000Z,30.00
2023-02-11T00:07:41.424Z,28.17
2023-02-11T00:10:17.205Z,34.38
2023-02-11T00:12:43.709Z,28.23
2023-02-11T00:15:10.226Z,25.85
2023-02-11T00:17:36.592Z,27.73
2023-02-11T00:20:03.196Z,33.80
2023-02-11T00:22:29.591Z,28.08
2023-02-11T00:24:57.048Z,30.33
2023-02-11T00:27:23.390Z,29.27
2023-02-11T00:29:49.740Z,29.08
2023-02-11T00:32:16.120Z,29.58
2023-02-11T00:34:42.495Z,33.55
2023-02-11T00:37:08.914Z,22.60
2023-02-11T00:39:38.207Z,25.15
2023-02-11T00:42:05.031Z,27.02
2023-02-11T00:44:31.391Z,23.50
2023-02-11T00:46:57.874Z,14.90
2023-02-11T00:49:25.150Z,24.58
2023-02-11T00:51:51.481Z,29.48
2023-02-11T00:54:17.812Z,31.67
2023-02-11T00:56:44.158Z,32.90
2023-02-11T00:59:10.565Z,32.45
2023-02-11T01:01:37.088Z,33.22
2023-02-11T01:04:03.539Z,31.63
2023-02-11T01:06:30.089Z,31.40
2023-02-11T01:08:56.468Z,23.50
2023-02-11T01:11:22.850Z,28.35
2023-02-11T01:13:50.456Z,26.45
2023-02-11T01:16:17.725Z,34.83
2023-02-11T01:18:44.373Z,29.35
2023-02-11T01:21:10.982Z,21.15
2023-02-11T01:23:37.337Z,27.88
2023-02-11T01:26:04.026Z,13.80
2023-02-11T01:28:30.790Z,30.67
2023-02-11T01:30:57.505Z,33.13
2023-02-11T01:33:24.372Z,33.38
2023-02-11T01:35:51.992Z,35.72
2023-02-11T01:38:22.185Z,33.40
2023-02-11T01:41:09.400Z,31.05
2023-02-11T01:43:38.936Z,39.20
2023-02-11T01:46:13.783Z,32.63
2023-02-11T01:48:46.737Z,36.83
2023-02-11T01:51:17.328Z,31.88
2023-02-11T01:54:03.543Z,34.65
2023-02-11T01:56:49.738Z,34.20
2023-02-11T01:59:38.611Z,42.25
2023-02-11T02:02:10.271Z,28.40
2023-02-11T02:04:44.113Z,30.77
2023-02-11T02:07:16.555Z,36.70
2023-02-11T02:09:49.924Z,32.53
2023-02-11T02:12:16.351Z,23.10
2023-02-11T02:14:42.891Z,34.28
2023-02-11T02:17:34.102Z,31.63
2023-02-11T02:20:11.771Z,33.63
2023-02-11T02:22:42.559Z,34.38
2023-02-11T02:25:46.052Z,32.08
2023-02-11T02:28:33.664Z,36.38
2023-02-11T02:31:02.996Z,27.63
2023-02-11T02:34:10.295Z,33.25
2023-02-11T02:36:42.658Z,37.08
2023-02-11T02:39:18.881Z,40.83
2023-02-11T02:41:46.227Z,34.97
2023-02-11T02:44:12.866Z,40.20
2023-02-11T02:46:39.494Z,43.58
2023-02-11T02:49:09.922Z,33.45
2023-02-11T02:51:58.685Z,38.63
2023-02-11T02:54:57.065Z,40.83
2023-02-11T02:57:41.956Z,34.13
2023-02-11T03:00:51.960Z,35.85
2023-02-11T03:03:21.276Z,41.25
2023-02-11T03:06:02.451Z,31.27
2023-02-11T03:11:15.831Z,22.08
2023-02-11T03:13:43.244Z,31.55
2023-02-11T03:16:30.173Z,32.33
2023-02-11T03:19:03.597Z,37.08
2023-02-11T03:21:32.064Z,39.92
2023-02-11T03:26:38.400Z,26.20
2023-02-11T03:29:10.829Z,27.65
2023-02-11T03:31:44.696Z,31.10
2023-02-11T03:34:35.573Z,35.50
2023-02-11T03:37:06.416Z,31.38
2023-02-11T03:39:36.639Z,29.25
2023-02-11T03:42:04.314Z,32.78
2023-02-11T03:44:35.058Z,23.90
2023-02-11T03:47:03.320Z,35.67
2023-02-11T03:51:56.699Z,25.95
2023-02-11T03:54:29.449Z,35.20
2023-02-11T03:56:59.066Z,33.65
2023-02-11T03:59:26.027Z,24.05
2023-02-11T04:01:52.765Z,16.98
2023-02-11T04:04:19.635Z,33.70
2023-02-11T04:06:46.187Z,33.70
2023-02-11T04:09:12.658Z,34.00
2023-02-11T04:11:39.009Z,44.22
2023-02-11T04:14:05.528Z,40.15
2023-02-11T04:16:31.963Z,35.10
2023-02-11T04:18:58.363Z,30.25
2023-02-11T04:21:24.814Z,37.53
2023-02-11T04:23:51.161Z,38.35
2023-02-11T04:26:17.625Z,22.35
2023-02-11T04:28:43.991Z,28.00
2023-02-11T04:31:11.931Z,35.67
2023-02-11T04:33:38.382Z,34.25
2023-02-11T04:36:05.061Z,33.85
2023-02-11T04:38:32.486Z,34.83
2023-02-11T04:41:00.387Z,31.70
2023-02-11T04:43:26.780Z,38.22
2023-02-11T04:45:57.164Z,37.00
2023-02-11T04:48:23.580Z,27.50
2023-02-11T04:50:49.929Z,27.02
2023-02-11T04:53:16.256Z,14.50
2023-02-11T04:55:42.616Z,36.97
2023-02-11T04:58:08.972Z,25.25
2023-02-11T05:00:35.296Z,32.45
2023-02-11T05:03:01.623Z,34.75
2023-02-11T05:05:28.030Z,32.10
2023-02-11T05:07:54.346Z,26.55
2023-02-11T05:10:20.685Z,23.65
2023-02-11T05:12:49.160Z,33.80
2023-02-11T05:15:15.760Z,35.78
2023-02-11T05:17:42.146Z,37.22
2023-02-11T05:20:09.145Z,27.33
2023-02-11T05:22:35.511Z,35.28
2023-02-11T05:25:01.851Z,30.23
2023-02-11T05:27:28.254Z,23.83
2023-02-11T05:29:54.576Z,28.52
2023-02-11T05:32:21.007Z,43.55
2023-02-11T05:34:47.380Z,34.22
2023-02-11T05:37:13.805Z,35.67
2023-02-11T05:39:40.288Z,30.88
2023-02-11T05:42:06.782Z,37.47
2023-02-11T05:44:33.142Z,33.85
2023-02-11T05:46:59.517Z,34.35
2023-02-11T05:49:25.887Z,35.08
2023-02-11T05:51:52.305Z,33.20
2023-02-11T05:54:18.654Z,34.67
2023-02-11T05:56:45.139Z,31.25
2023-02-11T05:59:13.825Z,30.40
2023-02-11T06:01:40.425Z,30.67
2023-02-11T06:04:06.762Z,27.35
2023-02-11T06:06:33.107Z,31.08
2023-02-11T06:08:59.493Z,31.35
2023-02-11T06:11:25.881Z,33.13
2023-02-11T06:13:52.728Z,31.17
2023-02-11T06:16:19.164Z,25.52
2023-02-11T06:18:45.594Z,33.45
2023-02-11T06:21:11.968Z,31.55
2023-02-11T06:23:38.726Z,34.10
2023-02-11T06:26:06.949Z,26.73
2023-02-11T06:31:06.623Z,27.15
2023-02-11T06:33:34.133Z,32.78
2023-02-11T06:36:00.709Z,25.58
2023-02-11T06:38:27.113Z,26.23
2023-02-11T06:40:53.527Z,27.48
2023-02-11T06:43:19.998Z,22.60
2023-02-11T06:45:52.956Z,20.17
2023-02-11T06:48:19.360Z,30.48
2023-02-11T06:50:45.773Z,28.33
2023-02-11T06:53:12.122Z,29.33
2023-02-11T06:55:38.558Z,27.67
2023-02-11T06:58:04.990Z,29.15
2023-02-11T07:00:31.413Z,24.67
2023-02-11T07:02:57.789Z,28.48
2023-02-11T07:05:24.152Z,27.25
2023-02-11T07:07:50.647Z,27.13
2023-02-11T07:10:17.027Z,23.42
2023-02-11T07:12:43.428Z,25.83
2023-02-11T07:15:10.020Z,24.38
2023-02-11T07:17:36.588Z,9.90
2023-02-11T07:20:03.393Z,27.40
2023-02-11T07:22:29.866Z,30.45
2023-02-11T07:24:56.217Z,36.90
2023-02-11T07:27:22.546Z,30.23
2023-02-11T07:29:48.959Z,25.95
2023-02-11T07:32:15.447Z,28.38
2023-02-11T07:34:41.895Z,29.98
2023-02-11T07:37:08.393Z,31.50
2023-02-11T07:39:34.928Z,36.75
2023-02-11T07:42:01.291Z,26.33
2023-02-11T07:44:27.679Z,23.63
2023-02-11T07:46:54.165Z,14.77
2023-02-11T07:49:20.517Z,26.83
2023-02-11T07:51:47.851Z,28.50
2023-02-11T07:54:14.253Z,9.30
2023-02-11T07:56:40.710Z,22.90
2023-02-11T07:59:07.137Z,26.48
2023-02-11T08:01:33.542Z,20.23
2023-02-11T08:04:01.218Z,15.38
2023-02-11T08:06:30.523Z,26.02
2023-02-11T08:08:56.983Z,23.77
2023-02-11T08:11:25.708Z,29.48
2023-02-11T08:13:52.861Z,21.25
2023-02-11T08:16:30.802Z,24.05
2023-02-11T08:19:00.124Z,14.13
2023-02-11T08:21:27.401Z,24.83
2023-02-11T08:23:54.949Z,19.33
2023-02-11T08:26:24.324Z,19.00
2023-02-11T08:28:52.411Z,25.48
2023-02-11T08:31:21.868Z,20.85
2023-02-11T08:33:48.604Z,18.80
2023-02-11T08:36:18.222Z,32.35
2023-02-11T08:38:44.896Z,13.57
2023-02-11T08:41:11.731Z,21.73
2023-02-11T08:43:41.555Z,15.15
2023-02-11T08:46:09.238Z,35.80
2023-02-11T08:48:35.749Z,23.92
2023-02-11T08:51:06.654Z,21.00
2023-02-11T08:53:32.969Z,19.05
2023-02-11T08:55:59.447Z,15.77
2023-02-11T08:58:25.794Z,18.13
2023-02-11T09:00:52.479Z,25.90
2023-02-11T09:03:19.123Z,24.15
2023-02-11T09:05:47.417Z,15.30
2023-02-11T09:08:14.300Z,27.65
2023-02-11T09:10:40.854Z,34.45
2023-02-11T09:13:07.803Z,30.23
2023-02-11T09:15:34.797Z,27.67
2023-02-11T09:18:01.742Z,26.13
2023-02-11T09:20:28.224Z,27.17
2023-02-11T09:22:57.382Z,26.08
2023-02-11T09:25:23.990Z,27.35
2023-02-11T09:27:51.294Z,23.98
2023-02-11T09:30:17.675Z,16.52
2023-02-11T09:32:44.050Z,29.85
2023-02-11T09:35:10.524Z,22.27
2023-02-11T09:37:37.499Z,16.60
2023-02-11T09:40:04.440Z,26.50
2023-02-11T09:42:41.995Z,29.85
2023-02-11T09:45:16.528Z,17.98
2023-02-11T09:50:33.976Z,22.45
2023-02-11T09:53:01.969Z,17.85
2023-02-11T09:55:37.621Z,18.83
2023-02-11T09:58:07.785Z,25.58
2023-02-11T10:00:39.919Z,20.20
2023-02-11T10:03:33.102Z,30.77
2023-02-11T10:06:19.872Z,25.77
2023-02-11T10:09:01.245Z,20.02
2023-02-11T10:12:09.099Z,28.27
2023-02-11T10:15:06.444Z,25.80
2023-02-11T10:17:41.466Z,20.75
2023-02-11T10:20:44.049Z,28.20
2023-02-11T10:23:27.022Z,26.67
2023-02-11T10:25:56.133Z,25.80
2023-02-11T10:28:29.468Z,30.98
2023-02-11T10:31:04.915Z,19.55
2023-02-11T10:33:46.360Z,32.63
2023-02-11T10:36:14.549Z,30.48
2023-02-11T10:41:21.075Z,28.58
2023-02-11T10:43:47.477Z,29.15
2023-02-11T10:46:19.697Z,29.02
2023-02-11T10:48:52.678Z,27.80
2023-02-11T10:51:28.412Z,28.95
2023-02-11T10:54:04.033Z,30.50
2023-02-11T10:56:38.317Z,28.30
2023-02-11T10:59:07.279Z,25.58
2023-02-11T11:01:41.329Z,26.25
2023-02-11T11:04:26.182Z,27.13
2023-02-11T11:06:52.706Z,25.52
2023-02-11T11:09:33.086Z,26.27
2023-02-11T11:11:59.469Z,25.38
2023-02-11T11:14:29.550Z,23.17
2023-02-11T11:16:55.937Z,26.30
2023-02-11T11:19:24.418Z,23.83
2023-02-11T11:21:55.596Z,28.30
2023-02-11T11:24:41.511Z,20.17
2023-02-11T11:27:18.149Z,24.55
2023-02-11T11:29:50.015Z,25.58
2023-02-11T11:32:22.374Z,24.73
2023-02-11T11:34:56.813Z,20.80
2023-02-11T11:39:59.920Z,23.67
2023-02-11T11:42:29.512Z,20.73
2023-02-11T11:45:15.364Z,19.75
2023-02-11T11:47:48.746Z,16.73
2023-02-11T11:50:45.199Z,26.15
2023-02-11T11:53:21.269Z,21.65
2023-02-11T11:55:51.579Z,15.02
2023-02-11T11:58:22.585Z,25.40
2023-02-11T12:01:00.310Z,28.60
2023-02-11T12:04:06.041Z,25.00
2023-02-11T12:06:45.469Z,32.88
2023-02-11T12:09:30.752Z,21.60
2023-02-11T12:12:15.879Z,27.90
2023-02-11T12:15:00.080Z,27.08
2023-02-11T12:17:43.023Z,17.33
2023-02-11T12:20:18.076Z,25.65
2023-02-11T12:23:15.120Z,18.35
2023-02-11T12:26:00.810Z,22.20
2023-02-11T12:28:58.095Z,21.38
2023-02-11T12:31:53.298Z,23.30
2023-02-11T12:34:32.346Z,25.23
2023-02-11T12:37:09.366Z,21.52
2023-02-11T12:40:14.550Z,22.42
2023-02-11T12:43:10.187Z,24.20
2023-02-11T12:46:01.951Z,22.15
2023-02-11T12:48:46.565Z,22.58
2023-02-11T12:51:40.619Z,19.23
2023-02-11T12:54:09.883Z,14.40
2023-02-11T12:57:02.499Z,25.70
2023-02-11T12:59:40.961Z,23.25
2023-02-11T13:02:29.171Z,22.98
2023-02-11T13:05:05.017Z,23.13
2023-02-11T13:07:37.035Z,14.80
2023-02-11T13:10:16.558Z,20.15
2023-02-11T13:13:05.331Z,22.35
2023-02-11T13:15:31.890Z,19.48
2023-02-11T13:18:12.925Z,21.33
2023-02-11T13:20:48.747Z,18.00
2023-02-11T13:23:25.860Z,18.63
2023-02-11T13:26:21.543Z,15.13
2023-02-11T13:29:16.097Z,19.90
2023-02-11T13:31:42.638Z,17.13
2023-02-11T13:34:41.390Z,24.05
2023-02-11T13:37:26.631Z,12.10
2023-02-11T13:40:01.632Z,20.17
2023-02-11T13:42:29.367Z,17.50
2023-02-11T13:44:56.415Z,15.52
2023-02-11T13:47:31.791Z,17.55
2023-02-11T13:49:59.287Z,19.77
2023-02-11T13:52:37.264Z,17.20
2023-02-11T13:55:24.169Z,19.17
2023-02-11T13:58:06.047Z,17.98
2023-02-11T14:00:35.372Z,15.60
2023-02-11T14:03:50.932Z,18.88
2023-02-11T14:06:44.928Z,17.75
2023-02-11T14:09:14.366Z,18.77
2023-02-11T14:11:40.883Z,16.27
2023-02-11T14:14:21.706Z,16.55
2023-02-11T14:17:00.628Z,15.00
2023-02-11T14:19:35.699Z,19.55
2023-02-11T14:22:13.312Z,15.95
2023-02-11T14:24:46.722Z,17.17
2023-02-11T14:27:22.996Z,14.90
2023-02-11T14:30:06.908Z,18.17
2023-02-11T14:33:01.473Z,15.68
2023-02-11T14:35:34.760Z,20.95
2023-02-11T14:38:06.964Z,11.82
2023-02-11T14:40:39.002Z,14.52
2023-02-11T14:43:13.082Z,13.65
2023-02-11T14:45:40.197Z,13.00
2023-02-11T14:48:15.474Z,15.73
2023-02-11T14:50:48.746Z,14.73
2023-02-11T14:53:21.258Z,14.63
2023-02-11T14:55:52.340Z,11.27
2023-02-11T14:58:22.884Z,12.48
2023-02-11T15:01:09.017Z,12.98
2023-02-11T15:03:39.915Z,12.85
2023-02-11T15:06:13.370Z,12.80
2023-02-11T15:08:44.560Z,14.40
2023-02-11T15:11:14.316Z,14.77
2023-02-11T15:13:47.866Z,13.23
2023-02-11T15:16:18.501Z,13.00
2023-02-11T15:18:48.421Z,13.13
2023-02-11T15:21:21.570Z,14.57
2023-02-11T15:24:05.885Z,14.27
2023-02-11T15:26:33.225Z,15.10
2023-02-11T15:29:00.688Z,14.00
2023-02-11T15:31:28.122Z,17.02
2023-02-11T15:33:55.029Z,14.82
2023-02-11T15:36:28.510Z,13.18
2023-02-11T15:39:32.813Z,17.00
2023-02-11T15:42:18.837Z,15.30
2023-02-11T15:44:45.928Z,13.60
2023-02-11T15:47:18.483Z,13.80
2023-02-11T15:49:46.674Z,15.50
2023-02-11T15:52:15.143Z,15.05
2023-02-11T15:54:46.283Z,17.55
2023-02-11T15:57:12.865Z,17.45
2023-02-11T15:59:41.397Z,16.17
2023-02-11T16:02:18.632Z,19.25
2023-02-11T16:04:51.164Z,16.95
2023-02-11T16:07:57.086Z,16.13
2023-02-11T16:10:33.266Z,22.55
2023-02-11T16:13:03.599Z,20.77
2023-02-11T16:15:46.014Z,18.30
2023-02-11T16:18:26.446Z,16.48
2023-02-11T16:21:02.395Z,13.35
2023-02-11T16:23:33.365Z,15.77
2023-02-11T16:26:31.757Z,19.42
2023-02-11T16:29:04.620Z,28.88
2023-02-11T16:31:36.889Z,23.25
2023-02-11T16:34:08.201Z,21.30
2023-02-11T16:36:34.697Z,18.40
2023-02-11T16:39:01.185Z,19.10
2023-02-11T16:41:27.772Z,20.83
2023-02-11T16:43:57.063Z,17.35
2023-02-11T16:46:23.718Z,16.20
2023-02-11T16:48:50.747Z,20.27
2023-02-11T16:51:17.287Z,26.65
2023-02-11T16:53:43.754Z,32.78
2023-02-11T16:56:19.347Z,36.60
2023-02-11T16:58:45.963Z,18.40
2023-02-11T17:01:14.110Z,29.27
2023-02-11T17:03:41.387Z,27.17
2023-02-11T17:06:11.107Z,17.42
2023-02-11T17:08:37.618Z,17.73
2023-02-11T17:11:04.421Z,17.67
2023-02-11T17:13:31.109Z,19.98
2023-02-11T17:15:57.913Z,20.88
2023-02-11T17:18:24.451Z,17.95
2023-02-11T17:20:51.099Z,21.95
2023-02-11T17:23:17.595Z,20.27
2023-02-11T17:25:44.066Z,17.15
2023-02-11T17:28:12.147Z,21.83
2023-02-11T17:30:41.584Z,23.00
2023-02-11T17:33:08.028Z,18.05
2023-02-11T17:35:34.572Z,22.58
2023-02-11T17:38:01.471Z,21.55
2023-02-11T17:40:27.923Z,22.30
2023-02-11T17:42:54.399Z,21.00
2023-02-11T17:45:22.409Z,20.30
2023-02-11T17:47:49.357Z,22.02
2023-02-11T17:50:15.835Z,19.25
2023-02-11T17:52:42.150Z,27.60
2023-02-11T17:55:08.799Z,21.98
2023-02-11T17:57:35.280Z,22.83
2023-02-11T18:00:01.727Z,24.50
2023-02-11T18:02:28.070Z,23.23
2023-02-11T18:04:57.332Z,21.27
2023-02-11T18:07:23.746Z,22.85
2023-02-11T18:09:50.142Z,20.73
2023-02-11T18:12:24.873Z,27.35
2023-02-11T18:14:56.109Z,25.83
2023-02-11T18:17:24.051Z,23.80
2023-02-11T18:19:50.452Z,21.77
2023-02-11T18:22:17.556Z,22.65
2023-02-11T18:24:44.105Z,24.63
2023-02-11T18:27:10.935Z,22.20
2023-02-11T18:29:37.505Z,20.40
2023-02-11T18:32:04.289Z,16.33
2023-02-11T18:34:31.880Z,22.10
2023-02-11T18:36:58.622Z,23.50
2023-02-11T18:39:26.750Z,20.38
2023-02-11T18:41:58.948Z,22.88
2023-02-11T18:44:34.000Z,24.08
2023-02-11T18:47:02.005Z,23.35
2023-02-11T18:49:38.041Z,25.50
2023-02-11T18:52:04.542Z,24.48
2023-02-11T18:54:30.922Z,24.38
2023-02-11T18:56:57.287Z,24.98
2023-02-11T18:59:23.739Z,29.15
2023-02-11T19:01:51.056Z,25.58
2023-02-11T19:04:19.813Z,21.33
2023-02-11T19:06:48.561Z,26.58
2023-02-11T19:09:17.337Z,26.13
2023-02-11T19:11:50.315Z,21.90
2023-02-11T19:14:24.939Z,23.85
2023-02-11T19:16:53.796Z,25.60
2023-02-11T19:19:23.974Z,26.90
2023-02-11T19:21:50.562Z,21.90
2023-02-11T19:24:21.104Z,21.08
2023-02-11T19:26:49.070Z,23.00
2023-02-11T19:31:42.304Z,25.80
2023-02-11T19:34:11.048Z,25.33
2023-02-11T19:36:38.881Z,25.30
2023-02-11T19:39:08.514Z,25.75
2023-02-11T19:41:37.533Z,25.48
2023-02-11T19:44:08.878Z,25.83
2023-02-11T19:46:38.545Z,26.02
2023-02-11T19:49:05.477Z,25.95
2023-02-11T19:51:33.637Z,24.13
2023-02-11T19:54:00.448Z,24.02
2023-02-11T19:56:28.487Z,24.83
2023-02-11T19:58:58.316Z,23.92
2023-02-11T20:01:25.928Z,22.67
2023-02-11T20:03:53.798Z,25.60
2023-02-11T20:08:58.335Z,23.73
2023-02-11T20:11:25.654Z,28.30
2023-02-11T20:13:52.458Z,26.00
2023-02-11T20:16:21.155Z,22.55
2023-02-11T20:18:49.200Z,27.30
2023-02-11T20:21:18.489Z,30.52
2023-02-11T20:23:46.706Z,23.40
2023-02-11T20:26:18.578Z,27.10
2023-02-11T20:28:45.964Z,33.80
2023-02-11T20:31:13.305Z,50.83
2023-02-11T20:33:40.765Z,50.63
2023-02-11T20:36:10.022Z,26.30
2023-02-11T20:38:37.368Z,21.95
2023-02-11T20:41:07.708Z,22.65
2023-02-11T20:43:36.933Z,27.00
2023-02-11T20:46:06.553Z,22.58
2023-02-11T20:48:34.705Z,28.52
2023-02-11T20:51:11.062Z,25.83
2023-02-11T20:53:40.106Z,23.52
2023-02-11T20:56:08.529Z,23.98
2023-02-11T20:58:36.132Z,26.42
2023-02-11T21:01:30.649Z,29.50
2023-02-11T21:04:03.230Z,28.00
2023-02-11T21:06:42.315Z,21.15
2023-02-11T21:09:11.625Z,26.10
2023-02-11T21:11:38.534Z,22.27
2023-02-11T21:14:06.615Z,23.65
2023-02-11T21:16:33.838Z,23.27
2023-02-11T21:19:04.220Z,31.27
2023-02-11T21:21:31.056Z,25.50
2023-02-11T21:23:58.549Z,27.77
2023-02-11T21:26:25.840Z,27.40
2023-02-11T21:28:52.624Z,28.67
2023-02-11T21:31:29.352Z,24.92
2023-02-11T21:33:56.777Z,26.52
2023-02-11T21:36:24.519Z,26.45
2023-02-11T21:38:54.512Z,25.25
2023-02-11T21:41:22.734Z,25.95
2023-02-11T21:43:50.427Z,25.42
2023-02-11T21:46:18.016Z,24.10
2023-02-11T21:48:44.993Z,25.15
2023-02-11T21:51:15.521Z,32.75
2023-02-11T21:53:42.141Z,27.20
2023-02-11T21:56:11.671Z,25.63
2023-02-11T21:58:38.940Z,29.10
2023-02-11T22:01:11.930Z,28.23
2023-02-11T22:03:42.412Z,23.98
2023-02-11T22:06:11.233Z,24.15
2023-02-11T22:08:38.615Z,24.52
2023-02-11T22:11:09.697Z,26.48
2023-02-11T22:13:39.929Z,23.25
2023-02-11T22:16:11.606Z,31.40
2023-02-11T22:18:38.312Z,36.00
2023-02-11T22:21:07.583Z,28.42
2023-02-11T22:23:34.201Z,24.67
2023-02-11T22:26:07.932Z,28.50
2023-02-11T22:28:35.333Z,38.10
2023-02-11T22:31:01.828Z,41.90
2023-02-11T22:33:28.624Z,35.42
2023-02-11T22:36:02.569Z,40.33
2023-02-11T22:38:29.914Z,41.70
2023-02-11T22:40:56.576Z,30.42
2023-02-11T22:43:23.232Z,11.25
2023-02-11T22:45:50.216Z,18.13
2023-02-11T22:48:17.229Z,44.30
2023-02-11T22:50:43.544Z,30.92
2023-02-11T22:53:09.976Z,40.00
2023-02-11T22:55:38.163Z,35.47
2023-02-11T22:58:05.165Z,33.80
2023-02-11T23:00:36.677Z,35.67
2023-02-11T23:03:03.738Z,41.97
2023-02-11T23:05:30.116Z,41.20
2023-02-11T23:07:56.562Z,48.50
2023-02-11T23:10:22.916Z,35.80
2023-02-11T23:12:49.250Z,43.05
2023-02-11T23:15:15.594Z,46.85
2023-02-11T23:17:41.915Z,33.60
2023-02-11T23:20:08.583Z,22.17
2023-02-11T23:22:34.954Z,36.53
2023-02-11T23:25:01.491Z,35.30
2023-02-11T23:27:27.842Z,27.70
2023-02-11T23:29:57.112Z,28.23
2023-02-11T23:32:23.561Z,33.72
2023-02-11T23:34:49.957Z,38.53
2023-02-11T23:37:16.368Z,47.08
2023-02-11T23:39:42.713Z,42.50
2023-02-11T23:42:09.359Z,37.60
2023-02-11T23:44:35.675Z,41.70
2023-02-11T23:47:02.101Z,45.63
2023-02-11T23:49:28.472Z,45.35
2023-02-11T23:51:54.844Z,42.67
2023-02-11T23:54:21.270Z,45.47
2023-02-11T23:56:47.640Z,40.30
2023-02-11T23:59:14.036Z,47.72
